BBC weather

Bay City Municipal Airport
Bay City, Texas, United States

Public forecast

Using degrees Fahrenheit for public forecast. Weather courtesy of forecast.io.

Current aviation weather report (METAR) for Bay City Municipal Airport

Retrieved 2019/12/10 17:15 UTC (1 hour ago):

KBYY 101715Z AUTO 01012G20KT 5SM -RA OVC013 13/12 A3012 RMK AO2 P0001 T01320118

Closest aviation forecast (TAF) to Bay City Municipal Airport

Closest forecast is Texas Gulf Coast Regional Airport, 22.6 nm (41.8 km) ENE. Retrieved 2019/12/10 18:22 UTC (8 minutes ago):

TAF KLBX 101720Z 1018/1118 02017G27KT 6SM -SHRA BR OVC010 FM102300 01015G25KT 4SM BR VCSH BKN015 OVC025 FM110300 01016KT P6SM SCT015 OVC025 FM111000 01008KT P6SM BKN015 OVC025 FM111600 03009KT P6SM SCT025